Time;durP1;ratioP1;P1;durP2;ratioP2;P2;SDS_P1;SDS_P2;PMS_P1;PMS_P2;Temp;Humidity;BMP_temperature;BMP_pressure;BME280_temperature;BME280_humidity;BME280_pressure;Samples;Min_cycle;Max_cycle;Signal;HPM_P1;HPM_P2
2022/06/08 00:00:53;;;;;;;4.70;1.80;;;;;17.10;97095.00;;;;108845;1267;41284;-65
2022/06/08 00:03:34;;;;;;;4.30;1.90;;;;;17.10;97092.00;;;;108890;1267;41906;-65
2022/06/08 00:06:05;;;;;;;3.80;1.90;;;;;17.00;97091.20;;;;108788;1267;41293;-66
2022/06/08 00:08:35;;;;;;;6.50;1.90;;;;;17.00;97086.80;;;;108905;1267;41168;-65
2022/06/08 00:11:05;;;;;;;3.90;1.90;;;;;16.90;97085.20;;;;108749;1267;41534;-65
2022/06/08 00:13:36;;;;;;;4.00;2.00;;;;;16.90;97083.80;;;;108852;1266;41158;-65
2022/06/08 00:16:06;;;;;;;;;;;;;16.90;97083.60;;;;108858;1267;41179;-66
2022/06/08 00:18:39;;;;;;;3.30;1.70;;;;;16.80;97084.60;;;;108854;1267;41800;-66
2022/06/08 00:21:09;;;;;;;4.20;1.80;;;;;16.78;97076.80;;;;108909;1267;41164;-65
2022/06/08 00:23:39;;;;;;;4.10;1.80;;;;;16.70;97072.20;;;;108864;1268;41200;-67
2022/06/08 00:26:10;;;;;;;4.30;1.90;;;;;16.70;97077.20;;;;108908;1267;41549;-67
2022/06/08 00:28:39;;;;;;;3.20;2.00;;;;;16.60;97075.60;;;;108891;1267;41154;-66
2022/06/08 00:31:10;;;;;;;4.40;1.80;;;;;16.60;97070.20;;;;108920;1267;41428;-65
2022/06/08 00:33:41;;;;;;;3.90;1.90;;;;;16.50;97068.00;;;;108837;1267;41229;-66
2022/06/08 00:36:12;;;;;;;2.60;1.60;;;;;16.48;97071.40;;;;108868;1267;41405;-65
2022/06/08 00:38:42;;;;;;;3.60;1.70;;;;;16.40;97064.80;;;;109062;1267;41171;-65
2022/06/08 00:41:37;;;;;;;3.50;1.80;;;;;16.30;97068.40;;;;108881;1267;41185;-64
2022/06/08 00:44:33;;;;;;;3.50;1.90;;;;;16.30;97063.40;;;;108954;1267;41578;-66
2022/06/08 00:47:06;;;;;;;4.70;1.80;;;;;16.26;97062.40;;;;108688;1270;41310;-67
2022/06/08 00:49:43;;;;;;;4.40;1.90;;;;;16.20;97065.80;;;;108883;1267;42317;-66
2022/06/08 00:52:14;;;;;;;4.70;1.90;;;;;16.20;97063.80;;;;108822;1267;41632;-66
2022/06/08 00:54:50;;;;;;;3.70;1.80;;;;;16.10;97062.60;;;;108753;1267;41809;-66
2022/06/08 00:57:25;;;;;;;3.20;1.70;;;;;16.10;97056.80;;;;108795;1268;42421;-66
2022/06/08 01:00:02;;;;;;;4.00;1.60;;;;;16.00;97060.40;;;;108777;1267;41201;-65
2022/06/08 01:02:33;;;;;;;2.80;1.70;;;;;16.00;97058.40;;;;108914;1267;41178;-66
2022/06/08 01:05:22;;;;;;;3.80;1.70;;;;;15.90;97051.40;;;;108864;1270;42099;-66
2022/06/08 01:07:55;;;;;;;3.70;1.90;;;;;15.90;97053.60;;;;108659;1267;41179;-65
2022/06/08 01:10:34;;;;;;;4.10;1.90;;;;;15.80;97054.20;;;;108788;1267;43313;-65
2022/06/08 01:13:05;;;;;;;4.20;1.90;;;;;15.80;97054.80;;;;108869;1267;41276;-66
2022/06/08 01:15:38;;;;;;;7.60;2.10;;;;;15.70;97051.40;;;;108769;1267;42239;-65
2022/06/08 01:18:10;;;;;;;3.20;1.60;;;;;15.70;97046.60;;;;108817;1267;41176;-67
2022/06/08 01:21:13;;;;;;;6.50;2.10;;;;;15.66;97040.60;;;;108830;1267;42576;-66
2022/06/08 01:23:45;;;;;;;3.30;1.70;;;;;15.70;97036.40;;;;108642;1267;41191;-67
2022/06/08 01:26:36;;;;;;;3.90;1.90;;;;;15.66;97034.00;;;;108806;1268;41664;-65
2022/06/08 01:29:16;;;;;;;3.20;1.90;;;;;15.64;97032.40;;;;108821;1267;41159;-66
2022/06/08 01:31:47;;;;;;;4.00;1.90;;;;;15.60;97034.00;;;;108955;1267;41743;-66
2022/06/08 01:34:39;;;;;;;4.00;1.80;;;;;15.60;97036.60;;;;108961;1266;41791;-66
2022/06/08 01:37:28;;;;;;;2.50;1.50;;;;;15.52;97034.60;;;;108798;1267;42347;-66
2022/06/08 01:39:58;;;;;;;3.30;1.70;;;;;15.50;97040.20;;;;108914;1267;41198;-66
2022/06/08 01:42:41;;;;;;;3.50;1.80;;;;;15.48;97037.80;;;;108924;1267;41177;-65
2022/06/08 01:45:40;;;;;;;3.60;1.80;;;;;15.40;97033.40;;;;108874;1267;42156;-66
2022/06/08 01:48:33;;;;;;;3.60;1.90;;;;;15.40;97037.80;;;;108653;1267;41184;-66
2022/06/08 01:51:16;;;;;;;5.20;2.10;;;;;15.40;97039.40;;;;108881;1267;41848;-66
2022/06/08 01:54:05;;;;;;;5.80;2.70;;;;;15.40;97040.00;;;;108795;1268;41198;-65
2022/06/08 01:56:44;;;;;;;6.90;2.60;;;;;15.40;97036.40;;;;108842;1267;41791;-65
2022/06/08 01:59:54;;;;;;;7.50;2.60;;;;;15.30;97040.00;;;;108736;1268;41211;-65
2022/06/08 02:02:35;;;;;;;6.00;2.20;;;;;15.30;97041.20;;;;108803;1267;41384;-65
2022/06/08 02:05:21;;;;;;;5.40;2.10;;;;;15.20;97043.20;;;;108844;1267;41762;-65
2022/06/08 02:07:57;;;;;;;6.90;2.40;;;;;15.20;97044.20;;;;108764;1268;41169;-66
2022/06/08 02:10:28;;;;;;;4.20;2.10;;;;;15.20;97038.80;;;;108904;1267;41158;-65
2022/06/08 02:13:17;;;;;;;4.40;2.30;;;;;15.10;97037.40;;;;108805;1267;41186;-65
2022/06/08 02:15:52;;;;;;;6.30;2.60;;;;;15.10;97030.40;;;;108844;1268;41173;-64
2022/06/08 02:18:27;;;;;;;6.80;2.30;;;;;15.10;97036.60;;;;108783;1267;41192;-66
2022/06/08 02:21:15;;;;;;;5.30;2.20;;;;;15.00;97035.60;;;;108789;1267;41178;-65
2022/06/08 02:24:04;;;;;;;6.70;2.60;;;;;15.00;97033.20;;;;108783;1267;41683;-65
2022/06/08 02:26:43;;;;;;;6.70;2.80;;;;;14.90;97029.20;;;;108803;1267;41556;-65
2022/06/08 02:29:36;;;;;;;6.00;3.00;;;;;14.80;97030.00;;;;108774;1267;41754;-65
2022/06/08 02:35:16;;;;;;;5.90;2.70;;;;;14.60;97021.60;;;;108874;1267;41156;-66
2022/06/08 02:37:48;;;;;;;6.90;2.70;;;;;14.50;97022.80;;;;108891;1267;41631;-65
2022/06/08 02:40:30;;;;;;;8.60;3.10;;;;;14.50;97027.00;;;;108824;1267;41180;-65
2022/06/08 02:43:10;;;;;;;6.20;2.60;;;;;14.50;97028.40;;;;108882;1267;41497;-65
2022/06/08 02:45:45;;;;;;;6.00;2.50;;;;;14.40;97032.20;;;;108710;1270;42393;-65
2022/06/08 02:48:15;;;;;;;5.50;2.50;;;;;14.40;97029.20;;;;108734;1268;41181;-65
2022/06/08 02:50:51;;;;;;;4.60;2.20;;;;;14.40;97031.80;;;;108766;1267;41237;-65
2022/06/08 02:53:22;;;;;;;6.00;2.30;;;;;14.30;97036.20;;;;108724;1270;41422;-66
2022/06/08 02:56:12;;;;;;;5.20;2.20;;;;;14.20;97031.00;;;;108792;1269;41222;-65
2022/06/08 02:59:05;;;;;;;7.90;2.30;;;;;14.20;97032.40;;;;108843;1267;41297;-65
2022/06/08 03:01:43;;;;;;;5.70;2.20;;;;;14.12;97033.20;;;;108968;1267;41561;-66
2022/06/08 03:04:46;;;;;;;5.30;2.20;;;;;14.10;97035.80;;;;108633;1270;41161;-66
2022/06/08 03:07:21;;;;;;;3.70;1.90;;;;;14.10;97031.60;;;;108392;1270;41190;-65
2022/06/08 03:09:52;;;;;;;6.00;2.20;;;;;14.10;97034.40;;;;108641;1270;41162;-65
2022/06/08 03:12:30;;;;;;;;;;;;;14.10;97039.20;;;;108822;1267;41671;-66
2022/06/08 03:15:02;;;;;;;4.40;1.80;;;;;14.10;97041.40;;;;108896;1267;41911;-65
2022/06/08 03:17:35;;;;;;;5.90;2.10;;;;;14.10;97038.80;;;;108807;1268;41172;-65
2022/06/08 03:20:08;;;;;;;4.20;2.10;;;;;14.10;97043.20;;;;108863;1267;42387;-65
2022/06/08 03:22:40;;;;;;;5.50;2.20;;;;;14.12;97044.60;;;;108808;1267;41292;-65
2022/06/08 03:25:11;;;;;;;5.30;2.30;;;;;14.16;97042.00;;;;108759;1268;41194;-66
2022/06/08 03:27:43;;;;;;;6.80;2.70;;;;;14.12;97045.60;;;;108787;1267;41177;-65
2022/06/08 03:30:15;;;;;;;6.00;2.90;;;;;14.20;97043.60;;;;108784;1268;41176;-65
2022/06/08 03:32:44;;;;;;;7.40;3.20;;;;;14.20;97050.60;;;;108795;1268;41290;-65
2022/06/08 03:35:14;;;;;;;6.00;2.80;;;;;14.30;97048.40;;;;108814;1269;41652;-65
2022/06/08 03:37:45;;;;;;;7.50;3.40;;;;;14.30;97049.20;;;;108846;1267;41560;-65
2022/06/08 03:40:20;;;;;;;5.90;2.70;;;;;14.30;97047.20;;;;108811;1268;41461;-65
2022/06/08 03:42:51;;;;;;;6.70;2.90;;;;;14.30;97050.00;;;;108797;1268;41406;-65
2022/06/08 03:45:20;;;;;;;7.30;3.00;;;;;14.40;97050.60;;;;108804;1267;41943;-65
2022/06/08 03:47:52;;;;;;;5.60;2.40;;;;;14.40;97055.60;;;;108836;1268;41293;-65
2022/06/08 03:50:24;;;;;;;4.70;2.40;;;;;14.40;97053.60;;;;108871;1267;41200;-65
2022/06/08 03:53:00;;;;;;;5.70;2.50;;;;;14.50;97051.40;;;;108754;1267;41183;-66
2022/06/08 03:55:31;;;;;;;7.70;3.40;;;;;14.50;97050.00;;;;108768;1268;41177;-65
2022/06/08 03:58:01;;;;;;;7.90;3.00;;;;;14.60;97044.00;;;;108805;1267;41175;-65
2022/06/08 04:00:34;;;;;;;6.70;2.70;;;;;14.60;97046.40;;;;108876;1267;41287;-65
2022/06/08 04:03:07;;;;;;;10.00;3.10;;;;;14.70;97048.60;;;;108794;1269;41282;-65
2022/06/08 04:05:37;;;;;;;5.90;2.60;;;;;14.72;97048.20;;;;108804;1267;41707;-64
2022/06/08 04:08:11;;;;;;;6.70;2.70;;;;;14.80;97050.20;;;;108982;1267;41216;-64
2022/06/08 04:10:47;;;;;;;5.10;2.30;;;;;14.90;97048.00;;;;108751;1268;41757;-65
2022/06/08 04:13:17;;;;;;;9.80;2.90;;;;;15.00;97046.60;;;;108762;1268;41204;-65
2022/06/08 04:15:48;;;;;;;10.60;3.60;;;;;15.20;97046.60;;;;108784;1267;41206;-64
2022/06/08 04:18:28;;;;;;;6.60;3.00;;;;;15.58;97038.80;;;;108870;1267;42371;-65
2022/06/08 04:21:03;;;;;;;7.20;3.10;;;;;17.04;97027.00;;;;108896;1266;41292;-64
2022/06/08 04:23:45;;;;;;;8.90;3.50;;;;;18.60;97021.40;;;;108837;1267;41290;-64
2022/06/08 04:26:16;;;;;;;16.50;4.00;;;;;19.44;97020.20;;;;108788;1266;41426;-66
2022/06/08 04:28:47;;;;;;;8.40;3.40;;;;;20.34;97017.20;;;;108740;1270;41175;-65
2022/06/08 04:31:20;;;;;;;7.40;2.90;;;;;21.14;97016.00;;;;108936;1267;41217;-65
2022/06/08 04:33:53;;;;;;;6.60;2.70;;;;;22.18;97010.40;;;;108787;1267;41625;-66
2022/06/08 04:36:29;;;;;;;5.60;2.60;;;;;23.24;97005.40;;;;108868;1267;41291;-65
2022/06/08 04:38:59;;;;;;;;;;;;;24.20;97001.00;;;;108801;1268;41191;-65
2022/06/08 04:41:29;;;;;;;6.20;2.50;;;;;25.16;96997.40;;;;108804;1268;41178;-66
2022/06/08 04:43:59;;;;;;;5.70;2.30;;;;;25.80;97001.00;;;;108916;1267;41171;-66
2022/06/08 04:46:29;;;;;;;7.50;2.90;;;;;26.48;96996.60;;;;108857;1267;41293;-66
2022/06/08 04:49:00;;;;;;;6.60;2.70;;;;;27.00;96992.40;;;;108793;1268;41358;-65
2022/06/08 04:51:30;;;;;;;11.40;2.80;;;;;27.40;96995.00;;;;108754;1270;41213;-66
2022/06/08 04:54:01;;;;;;;6.30;2.50;;;;;27.42;96993.80;;;;108805;1270;40925;-66
2022/06/08 04:56:32;;;;;;;8.50;2.60;;;;;27.52;96993.00;;;;108762;1268;41503;-65
2022/06/08 04:59:01;;;;;;;7.50;2.80;;;;;27.86;96990.60;;;;108747;1267;41989;-65
2022/06/08 05:01:33;;;;;;;11.10;3.00;;;;;28.00;96994.20;;;;108835;1267;41970;-66
2022/06/08 05:04:04;;;;;;;8.50;2.90;;;;;27.90;96994.40;;;;108775;1268;42573;-66
2022/06/08 05:06:33;;;;;;;9.70;2.50;;;;;27.52;97006.40;;;;108975;1268;41178;-67
2022/06/08 05:09:04;;;;;;;10.70;2.80;;;;;27.40;97005.40;;;;108758;1268;42399;-67
2022/06/08 05:11:38;;;;;;;9.90;3.00;;;;;27.06;97002.60;;;;108891;1267;42497;-66
2022/06/08 05:14:08;;;;;;;7.70;2.90;;;;;26.40;97002.60;;;;108964;1267;41155;-66
2022/06/08 05:16:38;;;;;;;7.50;2.60;;;;;26.70;97009.00;;;;108767;1268;41498;-65
2022/06/08 05:19:08;;;;;;;16.30;2.50;;;;;26.90;97005.00;;;;108760;1268;41186;-66
2022/06/08 05:21:38;;;;;;;7.40;2.50;;;;;26.84;97006.40;;;;108850;1267;41180;-65
2022/06/08 05:24:11;;;;;;;8.10;2.30;;;;;26.86;97010.40;;;;108799;1267;41287;-66
2022/06/08 05:26:47;;;;;;;7.20;2.30;;;;;26.50;97024.20;;;;108756;1267;41318;-67
2022/06/08 05:29:17;;;;;;;5.10;2.00;;;;;26.04;97045.60;;;;108772;1267;41853;-67
2022/06/08 05:31:47;;;;;;;5.30;2.10;;;;;25.26;97053.40;;;;108753;1268;42243;-67
2022/06/08 05:34:16;;;;;;;5.80;2.10;;;;;24.60;97058.60;;;;108815;1267;41746;-66
2022/06/08 05:36:47;;;;;;;5.10;1.90;;;;;24.04;97063.20;;;;108921;1270;41278;-67
2022/06/08 05:39:20;;;;;;;4.80;2.00;;;;;23.72;97064.00;;;;108932;1267;41181;-66
2022/06/08 05:41:50;;;;;;;4.00;1.90;;;;;23.32;97063.80;;;;108967;1267;42194;-66
2022/06/08 05:44:20;;;;;;;3.00;1.70;;;;;23.02;97067.20;;;;108646;1268;41276;-66
2022/06/08 05:46:53;;;;;;;6.20;1.90;;;;;23.00;97066.80;;;;108939;1267;42195;-66
2022/06/08 05:49:23;;;;;;;5.90;1.70;;;;;23.00;97068.60;;;;108876;1268;42608;-65
2022/06/08 05:51:54;;;;;;;6.90;1.80;;;;;23.36;97055.20;;;;108816;1267;41709;-66
2022/06/08 05:54:27;;;;;;;3.30;1.60;;;;;24.42;97028.60;;;;108914;1266;41209;-66
2022/06/08 05:56:57;;;;;;;4.20;1.70;;;;;25.56;97024.40;;;;108884;1268;41178;-66
2022/06/08 05:59:30;;;;;;;2.50;1.50;;;;;26.80;97017.80;;;;108769;1267;41324;-66
2022/06/08 06:01:59;;;;;;;3.50;1.70;;;;;27.94;97015.80;;;;108894;1267;41933;-67
2022/06/08 06:04:29;;;;;;;4.80;2.00;;;;;28.60;97009.40;;;;108838;1268;41917;-67
2022/06/08 06:06:59;;;;;;;6.90;2.20;;;;;28.92;97012.80;;;;108892;1267;41644;-67
2022/06/08 06:09:29;;;;;;;6.20;2.00;;;;;29.18;97008.40;;;;108966;1268;41157;-66
2022/06/08 06:11:58;;;;;;;4.60;1.90;;;;;29.20;97010.40;;;;108857;1268;41219;-67
2022/06/08 06:14:36;;;;;;;6.20;2.10;;;;;29.46;97012.60;;;;108905;1267;41288;-66
2022/06/08 06:17:06;;;;;;;7.20;2.30;;;;;30.00;97011.80;;;;108854;1267;41476;-67
2022/06/08 06:19:35;;;;;;;6.40;2.20;;;;;29.74;97011.20;;;;108770;1269;41171;-66
2022/06/08 06:22:25;;;;;;;6.30;2.20;;;;;29.40;97015.20;;;;108710;1267;42561;-66
2022/06/08 06:25:20;;;;;;;5.70;2.20;;;;;29.72;97012.80;;;;108712;1268;41697;-66
2022/06/08 06:28:03;;;;;;;5.20;2.00;;;;;30.46;97013.40;;;;108521;1268;418047;-65
2022/06/08 06:31:00;;;;;;;5.30;1.90;;;;;30.88;97016.00;;;;108823;1267;41971;-66
2022/06/08 06:33:52;;;;;;;3.20;1.60;;;;;31.64;97012.20;;;;108950;1267;42262;-66
2022/06/08 06:36:22;;;;;;;3.50;1.70;;;;;32.30;97017.60;;;;108769;1268;41199;-66
2022/06/08 06:38:52;;;;;;;5.00;2.00;;;;;32.80;97011.40;;;;108576;1267;41288;-66
2022/06/08 06:41:26;;;;;;;7.00;2.00;;;;;32.80;97011.00;;;;108769;1267;41420;-65
2022/06/08 06:43:56;;;;;;;4.80;2.00;;;;;32.58;97003.80;;;;108883;1267;41177;-66
2022/06/08 06:46:34;;;;;;;6.60;2.10;;;;;31.40;97005.00;;;;108815;1267;41268;-68
2022/06/08 06:49:22;;;;;;;7.10;2.50;;;;;31.12;97008.80;;;;108826;1267;41290;-67
2022/06/08 06:51:54;;;;;;;7.60;2.60;;;;;31.38;97010.60;;;;108733;1270;41220;-67
2022/06/08 06:54:26;;;;;;;9.50;3.00;;;;;30.48;97011.80;;;;108916;1267;41649;-67
2022/06/08 06:56:55;;;;;;;;;;;;;30.70;97005.80;;;;108939;1268;41614;-66
2022/06/08 06:59:28;;;;;;;7.30;2.40;;;;;30.78;97004.20;;;;108885;1267;41411;-66
2022/06/08 07:01:58;;;;;;;6.90;2.10;;;;;30.62;97001.60;;;;108818;1270;42578;-66
2022/06/08 07:04:28;;;;;;;8.60;2.40;;;;;30.86;97000.40;;;;108801;1267;41315;-65
2022/06/08 07:06:59;;;;;;;4.10;2.00;;;;;29.70;97001.80;;;;108792;1267;41183;-66
2022/06/08 07:09:29;;;;;;;6.90;2.30;;;;;29.70;97005.60;;;;108883;1267;42164;-66
2022/06/08 07:12:00;;;;;;;10.20;3.20;;;;;28.70;97006.20;;;;108849;1267;41295;-66
2022/06/08 07:14:34;;;;;;;6.70;2.30;;;;;27.98;97010.60;;;;108984;1267;41608;-67
2022/06/08 07:17:10;;;;;;;7.50;2.60;;;;;27.30;97008.40;;;;108812;1267;41494;-69
2022/06/08 07:19:42;;;;;;;5.80;2.50;;;;;27.02;97008.20;;;;108731;1267;41239;-67
2022/06/08 07:22:12;;;;;;;5.40;2.40;;;;;26.34;97011.80;;;;108736;1268;41207;-68
2022/06/08 07:24:41;;;;;;;10.00;2.20;;;;;25.48;97019.80;;;;108621;1270;42872;-67
2022/06/08 07:27:10;;;;;;;7.20;2.70;;;;;25.14;97019.80;;;;108932;1267;41176;-67
2022/06/08 07:29:39;;;;;;;4.60;2.10;;;;;24.94;97025.20;;;;108904;1269;42501;-66
2022/06/08 07:32:09;;;;;;;5.30;2.20;;;;;24.80;97023.60;;;;108932;1267;42564;-67
2022/06/08 07:34:38;;;;;;;7.80;2.50;;;;;24.92;97020.60;;;;108851;1267;41579;-67
2022/06/08 07:37:08;;;;;;;6.20;2.30;;;;;25.08;97018.60;;;;108916;1267;41179;-67
2022/06/08 07:39:37;;;;;;;5.80;2.40;;;;;24.86;97025.40;;;;108820;1268;41181;-67
2022/06/08 07:42:07;;;;;;;5.80;2.30;;;;;25.06;97015.00;;;;108856;1267;41285;-67
2022/06/08 07:44:36;;;;;;;7.40;2.40;;;;;25.20;97017.00;;;;108950;1267;41833;-67
2022/06/08 07:47:06;;;;;;;5.30;2.10;;;;;25.32;97018.00;;;;108787;1268;41165;-66
2022/06/08 07:49:42;;;;;;;6.20;2.60;;;;;25.62;97016.20;;;;108918;1267;41467;-66
2022/06/08 07:52:17;;;;;;;7.10;2.50;;;;;25.90;97012.60;;;;108904;1267;41272;-65
2022/06/08 07:54:47;;;;;;;5.60;2.40;;;;;25.88;97018.00;;;;108777;1268;41639;-66
2022/06/08 07:57:23;;;;;;;5.20;2.30;;;;;25.76;97008.60;;;;108819;1268;41214;-67
2022/06/08 07:59:52;;;;;;;5.20;2.20;;;;;25.72;97007.20;;;;108855;1268;41329;-68
2022/06/08 08:02:22;;;;;;;5.10;2.00;;;;;25.90;97000.40;;;;108872;1267;41177;-67
2022/06/08 08:04:51;;;;;;;5.70;2.20;;;;;25.88;97000.60;;;;108775;1267;41165;-66
2022/06/08 08:07:20;;;;;;;6.50;2.20;;;;;25.86;97001.40;;;;109023;1267;40811;-67
2022/06/08 08:09:50;;;;;;;8.40;1.90;;;;;26.00;96998.20;;;;108970;1268;41204;-67
2022/06/08 08:12:18;;;;;;;4.70;1.80;;;;;25.94;96988.20;;;;108909;1267;41134;-67
2022/06/08 08:14:47;;;;;;;7.80;2.80;;;;;25.78;97000.20;;;;108838;1268;42603;-68
2022/06/08 08:17:18;;;;;;;9.60;2.90;;;;;26.10;96999.00;;;;108973;1267;41333;-67
2022/06/08 08:19:47;;;;;;;6.20;2.30;;;;;26.36;96992.80;;;;108944;1267;42048;-67
2022/06/08 08:22:22;;;;;;;5.90;2.20;;;;;26.50;96988.40;;;;108805;1267;41289;-67
2022/06/08 08:24:52;;;;;;;6.70;2.50;;;;;26.60;96989.40;;;;108879;1267;41168;-68
2022/06/08 08:27:22;;;;;;;5.60;2.10;;;;;26.32;96988.00;;;;108906;1267;41150;-67
2022/06/08 08:29:51;;;;;;;6.20;2.00;;;;;26.36;96987.80;;;;108763;1270;41287;-66
2022/06/08 08:32:21;;;;;;;7.50;2.00;;;;;26.42;96995.40;;;;108844;1268;42053;-68
2022/06/08 08:34:50;;;;;;;8.60;2.50;;;;;26.56;96987.80;;;;108921;1268;41152;-67
2022/06/08 08:37:19;;;;;;;8.70;2.30;;;;;26.60;96979.60;;;;108967;1268;41537;-67
2022/06/08 08:39:49;;;;;;;5.70;2.10;;;;;26.36;96980.20;;;;108952;1267;41695;-66
2022/06/08 08:42:21;;;;;;;5.80;2.30;;;;;26.56;96974.00;;;;108807;1270;40950;-67
2022/06/08 08:44:57;;;;;;;7.60;2.10;;;;;26.68;96970.60;;;;108804;1270;41743;-66
2022/06/08 08:47:35;;;;;;;6.40;2.00;;;;;26.44;96970.60;;;;108739;1270;41169;-67
2022/06/08 08:50:46;;;;;;;6.00;2.10;;;;;26.88;96966.00;;;;108820;1269;41177;-67
2022/06/08 08:53:23;;;;;;;8.30;1.80;;;;;26.78;96969.80;;;;108711;1270;41636;-68
2022/06/08 08:56:01;;;;;;;7.10;2.20;;;;;26.78;96970.00;;;;108788;1268;41209;-67
2022/06/08 08:58:35;;;;;;;6.00;1.80;;;;;26.46;96964.60;;;;108781;1267;41287;-67
2022/06/08 09:01:24;;;;;;;4.80;2.00;;;;;26.86;96963.60;;;;108779;1269;41185;-69
2022/06/08 09:04:15;;;;;;;4.40;1.90;;;;;26.36;96962.20;;;;108797;1270;41189;-67
2022/06/08 09:06:44;;;;;;;5.20;2.00;;;;;27.20;96967.40;;;;108750;1270;41866;-68
2022/06/08 09:09:19;;;;;;;4.30;1.70;;;;;27.00;96971.20;;;;108780;1269;41644;-68
2022/06/08 09:11:48;;;;;;;6.40;1.90;;;;;27.14;96963.20;;;;108709;1270;41191;-68
2022/06/08 09:14:49;;;;;;;4.40;1.70;;;;;27.60;96963.80;;;;108869;1270;41629;-69
2022/06/08 09:17:19;;;;;;;4.50;1.70;;;;;27.88;96952.20;;;;108940;1270;41929;-68
2022/06/08 09:19:50;;;;;;;4.30;1.70;;;;;28.20;96955.40;;;;108877;1269;41280;-68
2022/06/08 09:22:23;;;;;;;4.10;1.60;;;;;28.98;96950.00;;;;108704;1270;41309;-67
2022/06/08 09:25:03;;;;;;;3.90;1.60;;;;;29.30;96947.40;;;;108717;1269;41277;-68
2022/06/08 09:27:34;;;;;;;;;;;;;29.90;96939.60;;;;108712;1270;41162;-67
2022/06/08 09:30:14;;;;;;;4.80;1.70;;;;;30.60;96933.60;;;;108881;1268;41209;-68
2022/06/08 09:32:53;;;;;;;3.50;1.40;;;;;30.30;96931.40;;;;108806;1270;41223;-67
2022/06/08 09:35:35;;;;;;;3.50;1.50;;;;;30.54;96925.20;;;;108825;1268;41198;-68
2022/06/08 09:38:11;;;;;;;6.00;1.70;;;;;30.42;96917.60;;;;108716;1270;41231;-69
2022/06/08 09:41:14;;;;;;;2.70;1.40;;;;;31.26;96918.40;;;;108712;1268;41191;-68
2022/06/08 09:43:51;;;;;;;6.00;1.60;;;;;31.28;96914.80;;;;108804;1269;41966;-67
2022/06/08 09:52:45;;;;;;;5.60;1.80;;;;;31.42;96910.60;;;;108858;1267;41186;-69
2022/06/08 09:55:41;;;;;;;4.70;1.60;;;;;31.56;96912.60;;;;108846;1267;41310;-67
2022/06/08 09:58:31;;;;;;;2.10;1.40;;;;;31.00;96909.60;;;;108824;1267;41162;-67
2022/06/08 10:01:23;;;;;;;5.40;1.60;;;;;30.94;96911.20;;;;108864;1268;41285;-67
2022/06/08 10:04:12;;;;;;;3.90;1.50;;;;;31.26;96905.60;;;;108891;1268;41426;-67
2022/06/08 10:06:58;;;;;;;5.70;1.60;;;;;32.04;96905.40;;;;108920;1267;41738;-67
2022/06/08 10:10:04;;;;;;;5.00;1.30;;;;;31.74;96894.80;;;;108829;1270;40897;-66
2022/06/08 10:12:45;;;;;;;4.70;1.60;;;;;32.32;96888.00;;;;108883;1267;41172;-67
2022/06/08 10:15:34;;;;;;;5.30;1.40;;;;;32.08;96887.00;;;;108792;1268;41374;-68
2022/06/08 10:18:22;;;;;;;5.00;1.70;;;;;31.28;96889.60;;;;108747;1269;41642;-68
2022/06/08 10:20:55;;;;;;;2.90;1.50;;;;;31.62;96884.40;;;;109024;1268;41306;-68
2022/06/08 10:23:29;;;;;;;6.40;1.80;;;;;31.32;96883.20;;;;109084;1268;41368;-68
2022/06/08 10:26:07;;;;;;;2.20;1.40;;;;;31.56;96881.40;;;;108879;1268;41289;-67
2022/06/08 10:28:49;;;;;;;2.50;1.40;;;;;31.40;96882.00;;;;108812;1268;41492;-68
2022/06/08 10:31:22;;;;;;;3.60;1.60;;;;;30.90;96884.60;;;;108989;1268;41919;-69
2022/06/08 10:33:55;;;;;;;4.10;1.70;;;;;31.00;96886.40;;;;108976;1268;42497;-68
2022/06/08 10:36:25;;;;;;;3.50;1.60;;;;;31.32;96884.40;;;;109023;1267;41158;-68
2022/06/08 10:38:54;;;;;;;2.80;1.40;;;;;30.92;96881.40;;;;108790;1270;41208;-67
2022/06/08 10:44:32;;;;;;;6.10;1.70;;;;;31.28;96877.00;;;;108771;1267;41185;-68
2022/06/08 10:47:14;;;;;;;5.00;1.80;;;;;31.00;96873.60;;;;108803;1267;41232;-68
2022/06/08 10:49:49;;;;;;;3.10;1.60;;;;;30.60;96878.20;;;;108798;1268;41191;-69
2022/06/08 10:52:18;;;;;;;6.40;1.60;;;;;30.84;96873.60;;;;108995;1266;41165;-68
2022/06/08 10:54:55;;;;;;;3.20;1.50;;;;;30.96;96873.20;;;;109044;1267;42642;-68
2022/06/08 10:57:47;;;;;;;5.40;1.80;;;;;30.74;96866.40;;;;109014;1267;41193;-68
2022/06/08 11:00:19;;;;;;;3.10;1.60;;;;;32.40;96862.20;;;;108975;1269;41298;-67
2022/06/08 11:03:04;;;;;;;3.20;1.50;;;;;32.82;96865.00;;;;109049;1268;42523;-68
2022/06/08 11:05:42;;;;;;;4.40;1.60;;;;;32.06;96856.60;;;;108933;1267;41178;-69
2022/06/08 11:08:17;;;;;;;3.70;1.70;;;;;32.42;96859.40;;;;108953;1269;41277;-68
2022/06/08 11:13:22;;;;;;;3.60;1.60;;;;;33.50;96848.40;;;;108946;1268;41974;-68
2022/06/08 11:16:13;;;;;;;4.80;1.90;;;;;34.02;96842.60;;;;109074;1267;41748;-69
2022/06/08 11:18:46;;;;;;;6.60;1.90;;;;;34.60;96844.60;;;;109030;1269;41183;-68
2022/06/08 11:21:24;;;;;;;3.90;1.30;;;;;34.58;96838.80;;;;108962;1268;40911;-71
2022/06/08 11:24:34;;;;;;;6.80;2.30;;;;;34.90;96836.80;;;;108787;1268;41178;-70
2022/06/08 11:27:12;;;;;;;;;;;;;34.50;96835.40;;;;109069;1267;42259;-69
2022/06/08 11:29:49;;;;;;;4.30;1.60;;;;;34.68;96833.80;;;;108977;1268;42724;-68
2022/06/08 11:32:27;;;;;;;2.80;1.50;;;;;35.30;96829.80;;;;108886;1270;41339;-69
2022/06/08 11:35:24;;;;;;;6.10;1.60;;;;;34.22;96827.00;;;;109122;1267;41635;-70
2022/06/08 11:38:02;;;;;;;5.50;2.00;;;;;35.14;96820.40;;;;108946;1267;41180;-69
2022/06/08 11:40:35;;;;;;;3.20;1.40;;;;;35.68;96822.80;;;;109097;1267;41214;-68
2022/06/08 11:43:06;;;;;;;4.30;1.40;;;;;35.86;96819.60;;;;109031;1267;41182;-69
2022/06/08 11:45:52;;;;;;;4.00;1.30;;;;;35.02;96814.00;;;;108974;1267;41413;-68
2022/06/08 11:48:24;;;;;;;5.90;1.30;;;;;34.00;96810.40;;;;108775;1270;42412;-68
2022/06/08 11:51:03;;;;;;;3.80;1.40;;;;;32.98;96810.80;;;;108847;1270;41218;-69
2022/06/08 11:53:38;;;;;;;3.10;1.40;;;;;34.22;96811.00;;;;108756;1268;41185;-68
2022/06/08 11:56:22;;;;;;;4.70;1.60;;;;;34.74;96811.40;;;;108783;1270;41191;-69
2022/06/08 11:58:54;;;;;;;1.80;1.20;;;;;34.74;96804.80;;;;108972;1268;41494;-68
2022/06/08 12:01:26;;;;;;;2.40;1.30;;;;;33.82;96810.00;;;;109036;1267;41172;-68
2022/06/08 12:04:02;;;;;;;6.10;1.50;;;;;33.36;96810.00;;;;109087;1267;41220;-68
2022/06/08 12:06:33;;;;;;;6.20;1.80;;;;;33.54;96802.60;;;;108732;1269;41299;-69
2022/06/08 12:09:11;;;;;;;3.50;1.30;;;;;32.68;96805.60;;;;109119;1268;41540;-68
2022/06/08 12:11:44;;;;;;;6.90;1.80;;;;;31.64;96801.40;;;;108950;1268;41177;-67
2022/06/08 12:14:24;;;;;;;3.70;1.50;;;;;30.64;96803.60;;;;108891;1267;41814;-67
2022/06/08 12:17:01;;;;;;;4.50;1.40;;;;;30.82;96797.60;;;;108941;1267;41940;-68
2022/06/08 12:19:40;;;;;;;5.50;1.50;;;;;30.34;96799.60;;;;109038;1269;41641;-68
2022/06/08 12:22:16;;;;;;;6.20;1.70;;;;;30.10;96798.20;;;;108934;1267;41979;-69
2022/06/08 12:25:13;;;;;;;6.10;2.10;;;;;29.96;96797.40;;;;109003;1267;41791;-68
2022/06/08 12:27:53;;;;;;;5.30;1.80;;;;;29.36;96797.80;;;;108975;1267;41282;-68
2022/06/08 12:30:35;;;;;;;3.30;1.40;;;;;29.70;96798.80;;;;108862;1265;41621;-68
2022/06/08 12:33:18;;;;;;;4.00;1.50;;;;;29.78;96795.00;;;;108954;1269;42426;-67
2022/06/08 12:36:01;;;;;;;5.70;1.50;;;;;29.36;96796.20;;;;109029;1267;41378;-69
2022/06/08 12:38:32;;;;;;;2.60;1.30;;;;;29.22;96797.20;;;;109059;1267;41177;-67
2022/06/08 12:41:03;;;;;;;4.50;1.60;;;;;28.92;96799.00;;;;108786;1267;41291;-68
2022/06/08 12:43:50;;;;;;;3.30;1.50;;;;;29.28;96790.60;;;;108844;1267;41171;-68
2022/06/08 12:46:31;;;;;;;7.90;1.30;;;;;29.48;96789.40;;;;108993;1268;41954;-68
2022/06/08 12:49:22;;;;;;;2.60;1.30;;;;;29.56;96788.20;;;;108945;1268;41661;-67
2022/06/08 12:51:57;;;;;;;4.40;1.40;;;;;29.66;96788.60;;;;108880;1267;42459;-67
2022/06/08 12:54:30;;;;;;;2.00;1.30;;;;;29.26;96785.40;;;;108793;1267;42500;-67
2022/06/08 12:57:14;;;;;;;5.00;1.70;;;;;29.24;96783.80;;;;108893;1267;41235;-67
2022/06/08 12:59:45;;;;;;;11.80;1.70;;;;;28.94;96778.80;;;;108895;1267;41165;-67
2022/06/08 13:02:27;;;;;;;3.70;1.60;;;;;28.96;96780.80;;;;108964;1267;41157;-68
2022/06/08 13:04:56;;;;;;;5.30;1.70;;;;;29.16;96784.00;;;;108941;1269;41920;-67
2022/06/08 13:07:34;;;;;;;4.70;1.60;;;;;29.20;96780.80;;;;108815;1269;41854;-68